Flight Track Log - Related Links

Times and Time Zones

All times are in EDT time to prevent confusion due to time zone crossing. See the N682RW flight status page for this flight to view local times or setup timezone preferences in your user account.

Time Position Orientation Groundspeed Altitude Reporting Facility
EDT Latitude Longitude Course Direction KTS MPH feet Rate Location/Type
Tue 03:11:02 PM 42.1869 -83.3575 226° Southwest 186 214 1,400  Level Cleveland Center
Tue 03:11:38 PM 42.1653 -83.3875 226° Southwest 211 243 2,600 2,214 Climbing Cleveland Center
Tue 03:12:45 PM 42.1114 -83.4633 226° Southwest 262 302 5,200 2,628 Climbing Cleveland Center
Tue 03:13:39 PM 42.1161 -83.5253 276° West 252 290 7,900 2,579 Climbing Cleveland Center
Tue 03:14:39 PM 42.1517 -83.6053 301° West 252 290 10,100 1,300 Climbing Cleveland Center
Tue 03:15:39 PM 42.1928 -83.6969 301° West 268 308 10,500 900 Climbing Cleveland Center
Tue 03:16:39 PM 42.2403 -83.7947 303° West 292 336 11,900 1,950 Climbing Cleveland Center
Tue 03:17:39 PM 42.2875 -83.8953 302° West 306 352 14,400 2,500 Climbing Cleveland Center
Tue 03:18:39 PM 42.3197 -84.0036 292° West 311 358 16,900 2,400 Climbing Cleveland Center
Tue 03:19:39 PM 42.3414 -84.1117 285° West 311 358 19,200 1,600 Climbing Cleveland Center
Tue 03:20:39 PM 42.3692 -84.2256 288° West 311 358 20,100 1,250 Climbing Cleveland Center
Tue 03:21:39 PM 42.3964 -84.3481 287° West 324 373 21,700 1,650 Climbing Cleveland Center
Tue 03:22:39 PM 42.4236 -84.4736 286° West 336 387 23,400 1,500 Climbing Cleveland Center
Tue 03:23:39 PM 42.4356 -84.6067 277° West 347 399 24,700 1,340 Climbing Cleveland Center
Tue 03:24:22 PM 42.4400 -84.6975 274° West 355 409 25,700 1,257 Climbing Chicago Center
Tue 03:25:24 PM 42.4439 -84.8331 272° West 359 413 26,900 1,171 Climbing Chicago Center
Tue 03:26:25 PM 42.4469 -84.9733 272° West 370 426 28,100 1,171 Climbing Chicago Center
Tue 03:27:27 PM 42.4506 -85.1433 272° West 374 430 29,300 1,065 Climbing Chicago Center
Tue 03:28:29 PM 42.4536 -85.2869 272° West 380 437 30,300 1,113 Climbing Chicago Center
Tue 03:29:31 PM 42.4553 -85.4289 271° West 379 436 31,600 829 Climbing Chicago Center
Tue 03:30:32 PM 42.4578 -85.5703 271° West 376 433 32,000 195 Climbing Chicago Center
Tue 03:31:34 PM 42.4658 -85.7103 275° West 376 433 32,000  Level Chicago Center
Tue 03:32:36 PM 42.5217 -85.8422 300° West 410 472 32,000  Level Chicago Center
Tue 03:33:37 PM 42.5947 -85.9639 309° West 413 475 32,000  Level Chicago Center
Tue 03:34:39 PM 42.6236 -86.1053 286° West 391 450 32,000  Level Chicago Center
Tue 03:35:41 PM 42.6747 -86.2400 297° West 397 457 32,000  Level Chicago Center
Tue 03:36:42 PM 42.7389 -86.4017 298° West 401 461 32,000  Level Chicago Center
Tue 03:37:44 PM 42.7919 -86.5375 298° West 404 465 32,000  Level Chicago Center
Tue 03:38:46 PM 42.8439 -86.6733 298° West 404 465 32,000  Level Chicago Center
Tue 03:39:47 PM 42.8956 -86.8072 298° West 398 458 32,000  Level Chicago Center
Tue 03:40:49 PM 42.9478 -86.9433 298° West 404 465 32,000  Level Chicago Center
Tue 03:41:51 PM 42.9989 -87.0772 298° West 399 459 32,000  Level Chicago Center
Tue 03:42:52 PM 43.0506 -87.2111 298° West 399 459 32,000  Level Chicago Center
Tue 03:43:54 PM 43.1011 -87.3458 297° West 398 458 32,000  Level Chicago Center
Tue 03:44:56 PM 43.1561 -87.4889 298° West 400 460 32,000  Level Chicago Center
Tue 03:45:58 PM 43.2144 -87.6461 297° West 399 459 32,000  Level Chicago Center
Tue 03:46:59 PM 43.2647 -87.7811 297° West 399 459 32,000  Level Chicago Center
Tue 03:48:01 PM 43.3156 -87.9164 297° West 401 461 32,000  Level Chicago Center
Tue 03:49:03 PM 43.3653 -88.0500 297° West 396 456 32,000  Level Chicago Center
Tue 03:50:04 PM 43.4142 -88.1833 297° West 394 453 32,000  Level Chicago Center
Tue 03:51:06 PM 43.4706 -88.3375 297° West 391 450 32,000  Level Chicago Center
Tue 03:52:08 PM 43.5100 -88.4456 297° West 395 455 32,000  Level Chicago Center
Tue 03:53:10 PM 43.5658 -88.5992 297° West 392 451 32,000  Level Chicago Center
Tue 03:54:11 PM 43.6128 -88.7325 296° West 389 448 32,000  Level Chicago Center
Tue 03:55:03 PM 43.6608 -88.8644 297° West 389 448 32,000  Level Minneapolis Center
Tue 03:56:15 PM 43.7156 -89.0194 296° West 384 442 32,000  Level Chicago Center
Tue 03:57:07 PM 43.7544 -89.1303 296° West 387 445 32,000  Level Minneapolis Center
Tue 03:58:08 PM 43.8014 -89.2633 296° West 385 443 32,000  Level Minneapolis Center
Tue 03:59:10 PM 43.8478 -89.3942 296° West 382 440 32,000  Level Minneapolis Center
Tue 04:00:12 PM 43.8933 -89.5261 296° West 379 436 32,000  Level Minneapolis Center
Tue 04:01:13 PM 43.9408 -89.6581 297° West 382 440 32,000  Level Minneapolis Center
Tue 04:02:15 PM 43.9925 -89.8122 295° West 379 436 32,000  Level Minneapolis Center
Tue 04:03:17 PM 44.0389 -89.9442 296° West 379 436 32,000  Level Minneapolis Center
Tue 04:04:18 PM 44.0839 -90.0756 296° West 379 436 32,000  Level Minneapolis Center
Tue 04:05:20 PM 44.1300 -90.2097 296° West 382 440 32,000  Level Minneapolis Center
Tue 04:06:22 PM 44.1750 -90.3408 296° West 378 435 32,000  Level Minneapolis Center
Tue 04:07:23 PM 44.2197 -90.4747 295° West 380 437 32,000  Level Minneapolis Center
Tue 04:08:25 PM 44.2631 -90.6053 295° West 377 434 32,000  Level Minneapolis Center
Tue 04:09:27 PM 44.3147 -90.7608 295° West 374 430 32,000  Level Minneapolis Center
Tue 04:10:28 PM 44.3603 -90.8944 296° West 378 435 32,000  Level Minneapolis Center
Tue 04:11:30 PM 44.4017 -91.0214 295° West 375 432 32,000  Level Minneapolis Center
Tue 04:12:32 PM 44.4497 -91.1511 297° West 377 434 32,000  Level Minneapolis Center
Tue 04:13:33 PM 44.5094 -91.2736 304° West 381 438 32,000  Level Minneapolis Center
Tue 04:14:47 PM 44.5644 -91.3986 302° West 379 436 32,000  Level Minneapolis Center
Tue 04:15:49 PM 44.6417 -91.5733 302° West 379 436 32,000  Level Minneapolis Center
Tue 04:17:03 PM 44.6967 -91.6986 302° West 378 435 32,000  Level Minneapolis Center
Tue 04:18:05 PM 44.7614 -91.8478 301° West 377 434 32,000  Level Minneapolis Center
Tue 04:19:07 PM 44.8164 -91.9731 302° West 377 434 32,000  Level Minneapolis Center
Tue 04:20:09 PM 44.8717 -92.0997 302° West 379 436 32,000  Level Minneapolis Center
Tue 04:21:11 PM 44.9378 -92.2508 302° West 380 437 32,000  Level Minneapolis Center
Tue 04:22:13 PM 44.9914 -92.3750 301° West 378 435 32,000  Level Minneapolis Center
Tue 04:23:15 PM 45.0444 -92.4994 301° West 375 432 32,000  Level Minneapolis Center
Tue 04:24:16 PM 45.0983 -92.6244 301° West 375 432 32,000  Level Minneapolis Center
Tue 04:25:18 PM 45.1514 -92.7500 301° West 375 432 32,000  Level Minneapolis Center
Tue 04:26:20 PM 45.2150 -92.8983 301° West 372 428 32,000  Level Minneapolis Center
Tue 04:27:22 PM 45.2683 -93.0239 301° West 374 430 32,000  Level Minneapolis Center
Tue 04:28:24 PM 45.3203 -93.1492 301° West 372 428 32,000  Level Minneapolis Center
Tue 04:29:26 PM 45.3731 -93.2756 301° West 375 432 32,000  Level Minneapolis Center
Tue 04:30:29 PM 45.4258 -93.4028 301° West 376 433 32,000  Level Minneapolis Center
Tue 04:31:31 PM 45.4889 -93.5550 301° West 376 433 32,000  Level Minneapolis Center
Tue 04:32:33 PM 45.5406 -93.6811 300° West 372 428 32,000  Level Minneapolis Center
Tue 04:33:35 PM 45.5925 -93.8078 300° West 373 429 32,000  Level Minneapolis Center
Tue 04:34:37 PM 45.6444 -93.9361 300° West 373 429 32,000  Level Minneapolis Center
Tue 04:35:39 PM 45.6961 -94.0639 300° West 374 430 32,000  Level Minneapolis Center
Tue 04:36:41 PM 45.7583 -94.2172 300° West 374 430 32,000  Level Minneapolis Center
Tue 04:37:43 PM 45.8100 -94.3447 300° West 373 429 32,000  Level Minneapolis Center
Tue 04:38:45 PM 45.8606 -94.4703 300° West 369 425 32,000  Level Minneapolis Center
Tue 04:39:47 PM 45.9111 -94.5986 300° West 370 426 32,000  Level Minneapolis Center
Tue 04:40:49 PM 45.9614 -94.7258 300° West 368 423 32,000  Level Minneapolis Center
Tue 04:41:51 PM 46.0111 -94.8544 299° West 369 425 32,000  Level Minneapolis Center
Tue 04:42:53 PM 46.0717 -95.0069 300° West 368 423 32,000  Level Minneapolis Center
Tue 04:43:55 PM 46.1178 -95.1269 299° West 368 423 32,000  Level Minneapolis Center
Tue 04:44:57 PM 46.1683 -95.2550 300° West 369 425 32,000  Level Minneapolis Center
Tue 04:45:59 PM 46.2139 -95.3739 299° West 369 425 32,000  Level Minneapolis Center
Tue 04:47:01 PM 46.2772 -95.5392 299° West 368 423 32,000  Level Minneapolis Center
Tue 04:48:03 PM 46.3267 -95.6669 299° West 366 421 32,000  Level Minneapolis Center
Tue 04:49:05 PM 46.3756 -95.7967 299° West 368 423 32,000  Level Minneapolis Center
Tue 04:50:19 PM 46.4319 -95.9458 299° West 379 436 32,000  Level Minneapolis Center
Tue 04:51:22 PM 46.4917 -96.1036 299° West 373 429 32,000  Level Minneapolis Center
Tue 04:52:24 PM 46.5411 -96.2333 299° West 371 427 32,000  Level Minneapolis Center
Tue 04:53:26 PM 46.5889 -96.3647 298° West 370 426 32,000  Level Minneapolis Center
Tue 04:54:28 PM 46.6381 -96.4947 299° West 370 426 32,000  Level Minneapolis Center
Tue 04:55:30 PM 46.6867 -96.6272 298° West 372 428 32,000  Level Minneapolis Center
Tue 04:56:44 PM 46.7456 -96.7911 298° West 381 438 32,000  Level Minneapolis Center
Tue 04:57:46 PM 46.8056 -96.9533 298° West 381 438 32,000  Level Minneapolis Center
Tue 04:58:48 PM 46.8553 -97.0894 298° West 383 441 32,000 48 Level Minneapolis Center
Tue 04:59:50 PM 46.9058 -97.2269 298° West 386 444 32,100 435 Climbing Minneapolis Center
Tue 05:00:52 PM 46.9544 -97.3628 298° West 380 437 32,900 774 Climbing Minneapolis Center
Tue 05:01:54 PM 47.0050 -97.5019 298° West 385 443 33,700 532 Climbing Minneapolis Center
Tue 05:02:56 PM 47.0636 -97.6653 298° West 380 437 34,000 145 Climbing Minneapolis Center
Tue 05:03:58 PM 47.1128 -97.8044 297° West 381 438 34,000  Level Minneapolis Center
Tue 05:05:00 PM 47.1614 -97.9439 297° West 383 441 34,000  Level Minneapolis Center
Tue 05:06:02 PM 47.2117 -98.0861 298° West 387 445 34,000  Level Minneapolis Center
Tue 05:07:04 PM 47.2622 -98.2297 297° West 390 449 34,000  Level Minneapolis Center
Tue 05:08:06 PM 47.3106 -98.3728 297° West 389 448 34,000  Level Minneapolis Center
Tue 05:09:08 PM 47.3600 -98.5153 297° West 389 448 34,000  Level Minneapolis Center
Tue 05:10:10 PM 47.4081 -98.6594 296° West 390 449 34,000 -48 Level Minneapolis Center
Tue 05:11:12 PM 47.4672 -98.8333 297° West 393 452 33,900  Descending Minneapolis Center
Tue 05:12:14 PM 47.5161 -98.9767 297° West 392 451 34,000 48 Climbing Minneapolis Center
Tue 05:13:16 PM 47.5650 -99.1231 296° West 395 455 34,000  Level Minneapolis Center
Tue 05:14:30 PM 47.6147 -99.2728 296° West 402 463 34,000  Level Minneapolis Center
Tue 05:15:32 PM 47.6747 -99.4503 297° West 403 464 34,000  Level Minneapolis Center
Tue 05:16:34 PM 47.7233 -99.6011 296° West 404 465 34,000  Level Minneapolis Center
Tue 05:17:35 PM 47.7731 -99.7503 296° West 404 465 34,000  Level Minneapolis Center
Tue 05:18:37 PM 47.8306 -99.9347 295° West 411 473 34,000  Level Minneapolis Center
Tue 05:19:39 PM 47.8797 -100.0850 296° West 407 468 34,000  Level Minneapolis Center
Tue 05:20:41 PM 47.9261 -100.2358 295° West 404 465 34,000  Level Minneapolis Center
Tue 05:21:42 PM 47.9731 -100.3847 295° West 401 461 34,000  Level Minneapolis Center
Tue 05:22:44 PM 48.0214 -100.5358 296° West 404 465 34,000  Level Minneapolis Center
Tue 05:23:46 PM 48.0681 -100.6897 294° West 407 468 34,000  Level Minneapolis Center
Tue 05:24:48 PM 48.1194 -100.8433 297° West 411 473 34,000  Level Minneapolis Center
Tue 05:25:49 PM 48.1769 -101.0314 295° West 415 478 34,000  Level Minneapolis Center
Tue 05:27:03 PM 48.2236 -101.1819 295° West 417 480 34,000  Level Minneapolis Center
Tue 05:28:05 PM 48.2850 -101.3714 296° West 420 483 34,000  Level Minneapolis Center
Tue 05:29:07 PM 48.3419 -101.5281 299° West 426 490 34,000  Level Minneapolis Center
Tue 05:30:08 PM 48.3989 -101.6844 299° West 428 493 34,000  Level Minneapolis Center
Tue 05:31:10 PM 48.4669 -101.8728 299° West 429 494 34,000  Level Minneapolis Center
Tue 05:32:12 PM 48.5217 -102.0319 297° West 430 495 34,000  Level Minneapolis Center
Tue 05:33:14 PM 48.5775 -102.1903 298° West 431 496 34,000  Level Minneapolis Center
Tue 05:34:15 PM 48.6333 -102.3497 298° West 432 497 34,000  Level Minneapolis Center
Tue 05:34:34 PM 48.6500 -102.4167 291° West 430 495 34,000  Level Winnipeg Center
Tue 05:35:34 PM 48.7000 -102.6000 293° West 430 495 34,000  Level Winnipeg Center
Tue 05:36:19 PM 48.7431 -102.6714 312° West 433 498 34,000  Level Minneapolis Center
Tue 05:37:20 PM 48.8081 -102.8703 296° West 438 504 34,000  Level Minneapolis Center
Tue 05:38:22 PM 48.8361 -103.0514 283° West 445 512 34,000  Level Minneapolis Center
Tue 05:39:24 PM 48.8669 -103.2242 285° West 437 503 34,000  Level Minneapolis Center
Tue 05:40:34 PM 48.8833 -103.4500 276° West 430 495 34,000  Level Winnipeg Center
Tue 05:41:34 PM 48.9167 -103.6167 287° West 430 495 34,000  Level Winnipeg Center
Tue 05:42:34 PM 48.9500 -103.8000 286° West 430 495 34,000  Level Winnipeg Center
Tue 05:43:34 PM 48.9833 -103.9833 286° West 440 506 34,000  Level Winnipeg Center
Tue 05:44:34 PM 49.0167 -104.1667 286° West 440 506 34,000  Level Winnipeg Center
Tue 05:45:34 PM 49.0333 -104.3500 278° West 440 506 34,000  Level Winnipeg Center
Tue 05:46:34 PM 49.0667 -104.5333 286° West 440 506 34,000  Level Winnipeg Center
Tue 05:47:34 PM 49.1167 -104.7167 293° West 450 518 34,000  Level Winnipeg Center
Tue 05:48:34 PM 49.1333 -104.9000 278° West 450 518 34,000  Level Winnipeg Center
Tue 05:49:34 PM 49.1667 -105.0667 287° West 440 506 34,000  Level Winnipeg Center
Tue 05:50:34 PM 49.1833 -105.2667 277° West 440 506 34,000  Level Winnipeg Center
Tue 05:51:34 PM 49.2333 -105.4333 295° West 440 506 34,000  Level Winnipeg Center
Tue 05:52:34 PM 49.2500 -105.6333 277° West 440 506 34,000  Level Winnipeg Center
Tue 05:53:34 PM 49.2833 -105.8000 287° West 440 506 34,000  Level Winnipeg Center
Tue 05:54:34 PM 49.3000 -106.0167 277° West 440 506 34,000  Level Winnipeg Center
Tue 05:55:34 PM 49.3333 -106.1667 289° West 450 518 34,000  Level Winnipeg Center
Tue 05:56:34 PM 49.3500 -106.3500 278° West 450 518 34,000  Level Winnipeg Center
Tue 05:57:00 PM 49.3667 -106.4167 291° West 450 518 34,000  Level Edmonton Center
Tue 05:57:34 PM 49.3833 -106.5500 281° West 450 518 34,000  Level Winnipeg Center
Tue 05:58:34 PM 49.4333 -106.7333 293° West 450 518 34,000  Level Winnipeg Center
Tue 05:59:34 PM 49.4500 -106.9167 278° West 440 506 34,000  Level Winnipeg Center
Tue 06:00:34 PM 49.4833 -107.1000 286° West 450 518 34,000  Level Winnipeg Center
Tue 06:01:34 PM 49.5000 -107.2833 278° West 450 518 34,000  Level Winnipeg Center
Tue 06:02:34 PM 49.5333 -107.4833 284° West 450 518 34,000  Level Winnipeg Center
Tue 06:03:34 PM 49.5500 -107.6667 278° West 450 518 34,000  Level Winnipeg Center
Tue 06:04:34 PM 49.5833 -107.8500 286° West 450 518 34,000  Level Winnipeg Center
Tue 06:05:34 PM 49.6000 -108.0500 277° West 450 518 34,000  Level Winnipeg Center
Tue 06:06:34 PM 49.6333 -108.2500 285° West 450 518 34,000  Level Winnipeg Center
Tue 06:07:34 PM 49.6500 -108.4167 279° West 450 518 34,000  Level Winnipeg Center
Tue 06:08:34 PM 49.6833 -108.6333 283° West 450 518 34,000  Level Winnipeg Center
Tue 06:09:34 PM 49.7000 -108.8167 278° West 460 529 34,000  Level Winnipeg Center
Tue 06:10:34 PM 49.7333 -109.0167 285° West 450 518 34,000  Level Winnipeg Center
Tue 06:11:34 PM 49.7500 -109.2000 278° West 450 518 34,000  Level Winnipeg Center
Tue 06:12:00 PM 49.7500 -109.2333 270° West 450 518 34,000  Level Edmonton Center
Tue 06:12:34 PM 49.7667 -109.3833 280° West 450 518 34,000  Level Winnipeg Center
Tue 06:13:34 PM 49.8000 -109.5833 285° West 450 518 34,000  Level Winnipeg Center
Tue 06:14:00 PM 49.8000 -109.6333 270° West 450 518 34,000  Level Edmonton Center
Tue 06:15:00 PM 49.8167 -109.8167 278° West 450 518 34,000  Level Edmonton Center
Tue 06:16:00 PM 49.8333 -110.0000 278° West 450 518 34,000  Level Edmonton Center
Tue 06:16:34 PM 49.8667 -110.1500 289° West 450 518 34,000  Level Winnipeg Center
Tue 06:17:00 PM 49.8667 -110.2167 270° West 450 518 34,000  Level Edmonton Center
Tue 06:17:34 PM 49.8833 -110.3333 283° West 460 529 34,000  Level Winnipeg Center
Tue 06:18:00 PM 49.8833 -110.4000 270° West 450 518 34,000  Level Edmonton Center
Tue 06:19:00 PM 49.9167 -110.6000 285° West 450 518 34,000  Level Edmonton Center
Tue 06:20:00 PM 49.9333 -110.8000 277° West 450 518 34,000  Level Edmonton Center
Tue 06:21:00 PM 49.9667 -110.9667 287° West 450 518 34,000  Level Edmonton Center
Tue 06:22:00 PM 50.0000 -111.1833 284° West 450 518 34,000  Level Edmonton Center
Tue 06:23:00 PM 50.0333 -111.3500 287° West 450 518 34,000 -500 Level Edmonton Center
Tue 06:24:00 PM 50.0833 -111.5333 293° West 450 518 33,000 -1,300 Descending Edmonton Center
Tue 06:25:00 PM 50.1167 -111.7167 286° West 450 518 31,400 -1,450 Descending Edmonton Center
Tue 06:26:00 PM 50.1500 -111.9167 285° West 460 529 30,100 -1,300 Descending Edmonton Center
Tue 06:27:00 PM 50.2000 -112.1000 293° West 450 518 28,800 -1,650 Descending Edmonton Center
Tue 06:28:00 PM 50.2167 -112.3000 277° West 430 495 26,800 -1,950 Descending Edmonton Center
Tue 06:29:00 PM 50.2500 -112.4667 287° West 420 483 24,900 -2,000 Descending Edmonton Center
Tue 06:30:00 PM 50.3000 -112.6333 295° West 400 460 22,800 -1,950 Descending Edmonton Center
Tue 06:31:00 PM 50.3167 -112.7833 280° West 390 449 21,000 -2,100 Descending Edmonton Center
Tue 06:32:00 PM 50.3500 -112.9500 287° West 370 426 18,600 -2,000 Descending Edmonton Center
Tue 06:33:00 PM 50.3833 -113.0833 291° West 360 414 17,000 -1,800 Descending Edmonton Center
Tue 06:34:00 PM 50.4000 -113.2500 279° West 350 403 15,000 -1,900 Descending Edmonton Center
Tue 06:35:00 PM 50.4500 -113.3667 304° West 340 391 13,200 -1,750 Descending Edmonton Center
Tue 06:36:00 PM 50.5167 -113.4333 328° Northwest 320 368 11,500 -1,350 Descending Edmonton Center
Tue 06:37:00 PM 50.6000 -113.5000 333° Northwest 290 334 10,500 -1,350 Descending Edmonton Center
Tue 06:38:00 PM 50.6667 -113.5500 335° Northwest 270 311 8,800 -1,600 Descending Edmonton Center
Tue 06:39:00 PM 50.7333 -113.6167 328° Northwest 270 311 7,300 -900 Descending Edmonton Center
Tue 06:40:00 PM 50.8000 -113.6500 342° North 250 288 7,000 -400 Descending Edmonton Center
Tue 06:41:00 PM 50.8667 -113.6833 342° North 250 288 6,500 -450 Descending Edmonton Center
Tue 06:42:00 PM 50.9167 -113.7333 328° Northwest 240 276 6,100 -250 Descending Edmonton Center
Tue 06:43:00 PM 50.9833 -113.7667 343° North 220 253 6,000 -50 Descending Edmonton Center
Tue 06:44:00 PM 51.0167 -113.8333 308° West 180 207 6,000 -300 Level Edmonton Center
Tue 06:45:00 PM 51.0500 -113.9167 302° West 190 219 5,400 -800 Descending Edmonton Center
Tue 06:46:00 PM 51.0667 -113.9833 292° West 170 196 4,400 -900 Descending Edmonton Center
Tue 06:47:00 PM 51.0833 -114.0333 298° West 140 161 3,600 -800 Descending Edmonton Center

Login

Don't have an account? Register now (free) for customized features, flight alerts, and more!